sensor_id;sensor_type;location;lat;lon;timestamp;temperature;humidity
31597;DHT22;18201;50.978;7.034;2023-04-01T00:00:18;9.90;99.90
31597;DHT22;18201;50.978;7.034;2023-04-01T00:00:51;9.90;99.90
31597;DHT22;18201;50.978;7.034;2023-04-01T00:01:22;9.90;99.90
31597;DHT22;18201;50.978;7.034;2023-04-01T00:01:55;9.90;99.90
31597;DHT22;18201;50.978;7.034;2023-04-01T00:02:26;10.00;99.90
31597;DHT22;18201;50.978;7.034;2023-04-01T00:02:57;10.00;99.90
31597;DHT22;18201;50.978;7.034;2023-04-01T00:03:28;10.00;99.90
31597;DHT22;18201;50.978;7.034;2023-04-01T00:04:01;10.00;99.90
31597;DHT22;18201;50.978;7.034;2023-04-01T00:04:33;10.10;99.90
31597;DHT22;18201;50.978;7.034;2023-04-01T00:05:06;10.10;99.90
31597;DHT22;18201;50.978;7.034;2023-04-01T00:05:38;10.10;99.90
31597;DHT22;18201;50.978;7.034;2023-04-01T00:06:13;10.10;99.90
31597;DHT22;18201;50.978;7.034;2023-04-01T00:06:44;10.10;99.90
31597;DHT22;18201;50.978;7.034;2023-04-01T00:07:17;10.10;99.90
31597;DHT22;18201;50.978;7.034;2023-04-01T00:07:47;10.10;99.90
31597;DHT22;18201;50.978;7.034;2023-04-01T00:08:18;10.10;99.90
31597;DHT22;18201;50.978;7.034;2023-04-01T00:08:51;10.10;99.90
31597;DHT22;18201;50.978;7.034;2023-04-01T00:09:23;10.00;99.90
31597;DHT22;18201;50.978;7.034;2023-04-01T00:09:53;10.10;99.90
31597;DHT22;18201;50.978;7.034;2023-04-01T00:10:25;10.10;99.90
31597;DHT22;18201;50.978;7.034;2023-04-01T00:10:57;10.10;99.90
31597;DHT22;18201;50.978;7.034;2023-04-01T00:11:28;10.10;99.90
31597;DHT22;18201;50.978;7.034;2023-04-01T00:11:59;10.10;99.90
31597;DHT22;18201;50.978;7.034;2023-04-01T00:12:31;10.10;99.90
31597;DHT22;18201;50.978;7.034;2023-04-01T00:13:02;10.20;99.90
31597;DHT22;18201;50.978;7.034;2023-04-01T00:13:33;10.20;99.90
31597;DHT22;18201;50.978;7.034;2023-04-01T00:14:05;10.20;99.90
31597;DHT22;18201;50.978;7.034;2023-04-01T00:14:36;10.20;99.90
31597;DHT22;18201;50.978;7.034;2023-04-01T00:15:09;10.20;99.90
31597;DHT22;18201;50.978;7.034;2023-04-01T00:15:42;10.20;99.90
31597;DHT22;18201;50.978;7.034;2023-04-01T00:16:13;10.20;99.90
31597;DHT22;18201;50.978;7.034;2023-04-01T00:16:44;10.20;99.90
31597;DHT22;18201;50.978;7.034;2023-04-01T00:17:16;10.10;99.90
31597;DHT22;18201;50.978;7.034;2023-04-01T00:17:47;10.20;99.90
31597;DHT22;18201;50.978;7.034;2023-04-01T00:18:18;10.20;99.90
31597;DHT22;18201;50.978;7.034;2023-04-01T00:18:50;10.20;99.90
31597;DHT22;18201;50.978;7.034;2023-04-01T00:19:22;10.20;99.90
31597;DHT22;18201;50.978;7.034;2023-04-01T00:19:56;10.20;99.90
31597;DHT22;18201;50.978;7.034;2023-04-01T00:20:27;10.30;99.90
31597;DHT22;18201;50.978;7.034;2023-04-01T00:20:59;10.20;99.90
31597;DHT22;18201;50.978;7.034;2023-04-01T00:21:30;10.30;99.90
31597;DHT22;18201;50.978;7.034;2023-04-01T00:22:02;10.30;99.90
31597;DHT22;18201;50.978;7.034;2023-04-01T00:22:33;10.30;99.90
31597;DHT22;18201;50.978;7.034;2023-04-01T00:23:04;10.40;99.90
31597;DHT22;18201;50.978;7.034;2023-04-01T00:23:35;10.40;99.90
31597;DHT22;18201;50.978;7.034;2023-04-01T00:24:07;10.40;99.90
31597;DHT22;18201;50.978;7.034;2023-04-01T00:24:38;10.40;99.90
31597;DHT22;18201;50.978;7.034;2023-04-01T00:25:09;10.40;99.90
31597;DHT22;18201;50.978;7.034;2023-04-01T00:25:42;10.40;99.90
31597;DHT22;18201;50.978;7.034;2023-04-01T00:26:12;10.40;99.90
31597;DHT22;18201;50.978;7.034;2023-04-01T00:26:44;10.40;99.90
31597;DHT22;18201;50.978;7.034;2023-04-01T00:27:18;10.40;99.90
31597;DHT22;18201;50.978;7.034;2023-04-01T00:27:49;10.40;99.90
31597;DHT22;18201;50.978;7.034;2023-04-01T00:28:20;10.40;99.90
31597;DHT22;18201;50.978;7.034;2023-04-01T00:28:52;10.40;99.90
31597;DHT22;18201;50.978;7.034;2023-04-01T00:29:23;10.40;99.90
31597;DHT22;18201;50.978;7.034;2023-04-01T00:29:59;10.40;99.90
31597;DHT22;18201;50.978;7.034;2023-04-01T00:30:30;10.40;99.90
31597;DHT22;18201;50.978;7.034;2023-04-01T00:31:05;10.40;99.90
31597;DHT22;18201;50.978;7.034;2023-04-01T00:31:36;10.50;99.90
31597;DHT22;18201;50.978;7.034;2023-04-01T00:32:07;10.40;99.90
31597;DHT22;18201;50.978;7.034;2023-04-01T00:32:39;10.40;99.90
31597;DHT22;18201;50.978;7.034;2023-04-01T00:33:10;10.50;99.90
31597;DHT22;18201;50.978;7.034;2023-04-01T00:33:43;10.50;99.90
31597;DHT22;18201;50.978;7.034;2023-04-01T00:34:16;10.50;99.90
31597;DHT22;18201;50.978;7.034;2023-04-01T00:34:50;10.50;99.90
31597;DHT22;18201;50.978;7.034;2023-04-01T00:35:22;10.50;99.90
31597;DHT22;18201;50.978;7.034;2023-04-01T00:35:54;10.50;99.90
31597;DHT22;18201;50.978;7.034;2023-04-01T00:36:25;10.50;99.90
31597;DHT22;18201;50.978;7.034;2023-04-01T00:36:56;10.50;99.90
31597;DHT22;18201;50.978;7.034;2023-04-01T00:37:28;10.50;99.90
31597;DHT22;18201;50.978;7.034;2023-04-01T00:37:59;10.50;99.90
31597;DHT22;18201;50.978;7.034;2023-04-01T00:38:30;10.50;99.90
31597;DHT22;18201;50.978;7.034;2023-04-01T00:39:02;10.50;99.90
31597;DHT22;18201;50.978;7.034;2023-04-01T00:39:34;10.50;99.90
31597;DHT22;18201;50.978;7.034;2023-04-01T00:40:07;10.50;99.90
31597;DHT22;18201;50.978;7.034;2023-04-01T00:40:42;10.50;99.90
31597;DHT22;18201;50.978;7.034;2023-04-01T00:41:14;10.50;99.90
31597;DHT22;18201;50.978;7.034;2023-04-01T00:41:46;10.50;99.90
31597;DHT22;18201;50.978;7.034;2023-04-01T00:42:18;10.50;99.90
31597;DHT22;18201;50.978;7.034;2023-04-01T00:42:49;10.50;99.90
31597;DHT22;18201;50.978;7.034;2023-04-01T00:43:20;10.50;99.90
31597;DHT22;18201;50.978;7.034;2023-04-01T00:43:52;10.50;99.90
31597;DHT22;18201;50.978;7.034;2023-04-01T00:44:26;10.50;99.90
31597;DHT22;18201;50.978;7.034;2023-04-01T00:44:57;10.50;99.90
31597;DHT22;18201;50.978;7.034;2023-04-01T00:45:34;10.50;99.90
31597;DHT22;18201;50.978;7.034;2023-04-01T00:46:06;10.50;99.90
31597;DHT22;18201;50.978;7.034;2023-04-01T00:46:37;10.50;99.90
31597;DHT22;18201;50.978;7.034;2023-04-01T00:47:09;10.50;99.90
31597;DHT22;18201;50.978;7.034;2023-04-01T00:47:40;10.60;99.90
31597;DHT22;18201;50.978;7.034;2023-04-01T00:48:14;10.50;99.90
31597;DHT22;18201;50.978;7.034;2023-04-01T00:48:49;10.50;99.90
31597;DHT22;18201;50.978;7.034;2023-04-01T00:49:23;10.50;99.90
31597;DHT22;18201;50.978;7.034;2023-04-01T00:49:55;10.50;99.90
31597;DHT22;18201;50.978;7.034;2023-04-01T00:50:29;10.50;99.90
31597;DHT22;18201;50.978;7.034;2023-04-01T00:51:03;10.50;99.90
31597;DHT22;18201;50.978;7.034;2023-04-01T00:51:36;10.50;99.90
31597;DHT22;18201;50.978;7.034;2023-04-01T00:52:11;10.50;99.90
31597;DHT22;18201;50.978;7.034;2023-04-01T00:52:42;10.50;99.90
31597;DHT22;18201;50.978;7.034;2023-04-01T00:53:13;10.50;99.90
31597;DHT22;18201;50.978;7.034;2023-04-01T00:53:49;10.50;99.90
31597;DHT22;18201;50.978;7.034;2023-04-01T00:54:22;10.50;99.90
31597;DHT22;18201;50.978;7.034;2023-04-01T00:54:58;10.50;99.90
31597;DHT22;18201;50.978;7.034;2023-04-01T00:55:38;10.40;99.90
31597;DHT22;18201;50.978;7.034;2023-04-01T00:56:12;10.40;99.90
31597;DHT22;18201;50.978;7.034;2023-04-01T00:56:46;10.50;99.90
31597;DHT22;18201;50.978;7.034;2023-04-01T00:57:25;10.40;99.90
31597;DHT22;18201;50.978;7.034;2023-04-01T00:58:05;10.40;99.90
31597;DHT22;18201;50.978;7.034;2023-04-01T00:58:41;10.40;99.90
31597;DHT22;18201;50.978;7.034;2023-04-01T00:59:17;10.40;99.90
31597;DHT22;18201;50.978;7.034;2023-04-01T00:59:52;10.40;99.90
31597;DHT22;18201;50.978;7.034;2023-04-01T01:00:25;10.40;99.90
31597;DHT22;18201;50.978;7.034;2023-04-01T01:00:57;10.40;99.90
31597;DHT22;18201;50.978;7.034;2023-04-01T01:01:30;10.40;99.90
31597;DHT22;18201;50.978;7.034;2023-04-01T01:02:04;10.40;99.90
31597;DHT22;18201;50.978;7.034;2023-04-01T01:02:35;10.30;99.90
31597;DHT22;18201;50.978;7.034;2023-04-01T01:03:06;10.40;99.90
31597;DHT22;18201;50.978;7.034;2023-04-01T01:03:38;10.40;99.90
31597;DHT22;18201;50.978;7.034;2023-04-01T01:04:22;10.40;99.90
31597;DHT22;18201;50.978;7.034;2023-04-01T01:04:53;10.40;99.90
31597;DHT22;18201;50.978;7.034;2023-04-01T01:05:37;10.40;99.90
31597;DHT22;18201;50.978;7.034;2023-04-01T01:06:23;10.40;99.90
31597;DHT22;18201;50.978;7.034;2023-04-01T01:07:05;10.40;99.90
31597;DHT22;18201;50.978;7.034;2023-04-01T01:07:47;10.40;99.90
31597;DHT22;18201;50.978;7.034;2023-04-01T01:08:31;10.40;99.90
31597;DHT22;18201;50.978;7.034;2023-04-01T01:09:25;10.40;99.90
31597;DHT22;18201;50.978;7.034;2023-04-01T01:10:04;10.40;99.90
31597;DHT22;18201;50.978;7.034;2023-04-01T01:10:39;10.40;99.90
31597;DHT22;18201;50.978;7.034;2023-04-01T01:11:10;10.40;99.90
31597;DHT22;18201;50.978;7.034;2023-04-01T01:11:47;10.40;99.90
31597;DHT22;18201;50.978;7.034;2023-04-01T01:12:22;10.40;99.90
31597;DHT22;18201;50.978;7.034;2023-04-01T01:13:04;10.40;99.90
31597;DHT22;18201;50.978;7.034;2023-04-01T01:13:43;10.40;99.90
31597;DHT22;18201;50.978;7.034;2023-04-01T01:14:24;10.40;99.90
31597;DHT22;18201;50.978;7.034;2023-04-01T01:15:06;10.40;99.90
31597;DHT22;18201;50.978;7.034;2023-04-01T01:15:45;10.40;99.90
31597;DHT22;18201;50.978;7.034;2023-04-01T01:16:24;10.40;99.90
31597;DHT22;18201;50.978;7.034;2023-04-01T01:17:02;10.50;99.90
31597;DHT22;18201;50.978;7.034;2023-04-01T01:17:45;10.40;99.90
31597;DHT22;18201;50.978;7.034;2023-04-01T01:18:23;10.40;99.90
31597;DHT22;18201;50.978;7.034;2023-04-01T01:19:05;10.40;99.90
31597;DHT22;18201;50.978;7.034;2023-04-01T01:19:54;10.50;99.90
31597;DHT22;18201;50.978;7.034;2023-04-01T01:20:48;10.50;99.90
31597;DHT22;18201;50.978;7.034;2023-04-01T01:21:42;10.50;99.90
31597;DHT22;18201;50.978;7.034;2023-04-01T01:22:24;10.50;99.90
31597;DHT22;18201;50.978;7.034;2023-04-01T01:24:30;10.50;99.90
31597;DHT22;18201;50.978;7.034;2023-04-01T01:25:16;10.50;99.90
31597;DHT22;18201;50.978;7.034;2023-04-01T01:25:57;10.50;99.90
31597;DHT22;18201;50.978;7.034;2023-04-01T01:26:48;10.50;99.90
31597;DHT22;18201;50.978;7.034;2023-04-01T01:27:23;10.50;99.90
31597;DHT22;18201;50.978;7.034;2023-04-01T01:27:58;10.50;99.90
31597;DHT22;18201;50.978;7.034;2023-04-01T01:28:38;10.50;99.90
31597;DHT22;18201;50.978;7.034;2023-04-01T01:30:28;10.50;99.90
31597;DHT22;18201;50.978;7.034;2023-04-01T01:31:08;10.60;99.90
31597;DHT22;18201;50.978;7.034;2023-04-01T01:31:45;10.60;99.90
31597;DHT22;18201;50.978;7.034;2023-04-01T01:32:36;10.60;99.90
31597;DHT22;18201;50.978;7.034;2023-04-01T01:33:25;10.60;99.90
31597;DHT22;18201;50.978;7.034;2023-04-01T01:34:14;10.50;99.90
31597;DHT22;18201;50.978;7.034;2023-04-01T01:34:50;10.50;99.90
31597;DHT22;18201;50.978;7.034;2023-04-01T01:35:30;10.50;99.90
31597;DHT22;18201;50.978;7.034;2023-04-01T01:36:04;10.50;99.90
31597;DHT22;18201;50.978;7.034;2023-04-01T01:36:37;10.50;99.90
31597;DHT22;18201;50.978;7.034;2023-04-01T01:37:12;10.50;99.90
31597;DHT22;18201;50.978;7.034;2023-04-01T01:37:52;10.50;99.90
31597;DHT22;18201;50.978;7.034;2023-04-01T01:38:27;10.50;99.90
31597;DHT22;18201;50.978;7.034;2023-04-01T01:39:01;10.50;99.90
31597;DHT22;18201;50.978;7.034;2023-04-01T01:39:34;10.50;99.90
31597;DHT22;18201;50.978;7.034;2023-04-01T01:40:08;10.50;99.90
31597;DHT22;18201;50.978;7.034;2023-04-01T01:40:42;10.50;99.90
31597;DHT22;18201;50.978;7.034;2023-04-01T01:41:16;10.50;99.90
31597;DHT22;18201;50.978;7.034;2023-04-01T01:41:49;10.50;99.90
31597;DHT22;18201;50.978;7.034;2023-04-01T01:42:23;10.40;99.90
31597;DHT22;18201;50.978;7.034;2023-04-01T01:42:58;10.40;99.90
31597;DHT22;18201;50.978;7.034;2023-04-01T01:43:33;10.50;99.90
31597;DHT22;18201;50.978;7.034;2023-04-01T01:44:08;10.50;99.90
31597;DHT22;18201;50.978;7.034;2023-04-01T01:44:40;10.40;99.90
31597;DHT22;18201;50.978;7.034;2023-04-01T01:45:15;10.40;99.90
31597;DHT22;18201;50.978;7.034;2023-04-01T01:45:51;10.40;99.90
31597;DHT22;18201;50.978;7.034;2023-04-01T01:46:25;10.30;99.90
31597;DHT22;18201;50.978;7.034;2023-04-01T01:46:56;10.30;99.90
31597;DHT22;18201;50.978;7.034;2023-04-01T01:47:29;10.30;99.90
31597;DHT22;18201;50.978;7.034;2023-04-01T01:48:02;10.30;99.90
31597;DHT22;18201;50.978;7.034;2023-04-01T01:48:35;10.20;99.90
31597;DHT22;18201;50.978;7.034;2023-04-01T01:49:07;10.20;99.90
31597;DHT22;18201;50.978;7.034;2023-04-01T01:49:42;10.20;99.90
31597;DHT22;18201;50.978;7.034;2023-04-01T01:50:15;10.20;99.90
31597;DHT22;18201;50.978;7.034;2023-04-01T01:50:48;10.20;99.90
31597;DHT22;18201;50.978;7.034;2023-04-01T01:51:21;10.10;99.90
31597;DHT22;18201;50.978;7.034;2023-04-01T01:51:52;10.10;99.90
31597;DHT22;18201;50.978;7.034;2023-04-01T01:52:26;10.10;99.90
31597;DHT22;18201;50.978;7.034;2023-04-01T01:53:03;10.10;99.90
31597;DHT22;18201;50.978;7.034;2023-04-01T01:53:35;10.10;99.90
31597;DHT22;18201;50.978;7.034;2023-04-01T01:54:12;10.10;99.90
31597;DHT22;18201;50.978;7.034;2023-04-01T01:54:47;10.10;99.90
31597;DHT22;18201;50.978;7.034;2023-04-01T01:55:30;10.00;99.90
31597;DHT22;18201;50.978;7.034;2023-04-01T01:56:02;10.00;99.90
31597;DHT22;18201;50.978;7.034;2023-04-01T01:56:34;10.00;99.90
31597;DHT22;18201;50.978;7.034;2023-04-01T01:57:07;10.00;99.90
31597;DHT22;18201;50.978;7.034;2023-04-01T01:57:41;10.00;99.90
31597;DHT22;18201;50.978;7.034;2023-04-01T01:58:17;10.00;99.90
31597;DHT22;18201;50.978;7.034;2023-04-01T01:58:52;10.00;99.90
31597;DHT22;18201;50.978;7.034;2023-04-01T01:59:26;9.90;99.90
31597;DHT22;18201;50.978;7.034;2023-04-01T02:00:00;9.90;99.90
31597;DHT22;18201;50.978;7.034;2023-04-01T02:00:33;9.90;99.90
31597;DHT22;18201;50.978;7.034;2023-04-01T02:01:08;9.90;99.90
31597;DHT22;18201;50.978;7.034;2023-04-01T02:01:45;9.90;99.90
31597;DHT22;18201;50.978;7.034;2023-04-01T02:02:17;9.80;99.90
31597;DHT22;18201;50.978;7.034;2023-04-01T02:02:48;9.90;99.90
31597;DHT22;18201;50.978;7.034;2023-04-01T02:03:22;9.90;99.90
31597;DHT22;18201;50.978;7.034;2023-04-01T02:03:55;9.80;99.90
31597;DHT22;18201;50.978;7.034;2023-04-01T02:04:27;9.80;99.90
31597;DHT22;18201;50.978;7.034;2023-04-01T02:04:58;9.80;99.90
31597;DHT22;18201;50.978;7.034;2023-04-01T02:05:31;9.80;99.90
31597;DHT22;18201;50.978;7.034;2023-04-01T02:06:06;9.80;99.90
31597;DHT22;18201;50.978;7.034;2023-04-01T02:06:39;9.80;99.90
31597;DHT22;18201;50.978;7.034;2023-04-01T02:07:17;9.70;99.90
31597;DHT22;18201;50.978;7.034;2023-04-01T02:07:52;9.70;99.90
31597;DHT22;18201;50.978;7.034;2023-04-01T02:08:29;9.70;99.90
31597;DHT22;18201;50.978;7.034;2023-04-01T02:09:04;9.70;99.90
31597;DHT22;18201;50.978;7.034;2023-04-01T02:09:37;9.70;99.90
31597;DHT22;18201;50.978;7.034;2023-04-01T02:10:09;9.60;99.90
31597;DHT22;18201;50.978;7.034;2023-04-01T02:10:43;9.60;99.90
31597;DHT22;18201;50.978;7.034;2023-04-01T02:11:17;9.70;99.90
31597;DHT22;18201;50.978;7.034;2023-04-01T02:11:52;9.60;99.90
31597;DHT22;18201;50.978;7.034;2023-04-01T02:12:28;9.60;99.90
31597;DHT22;18201;50.978;7.034;2023-04-01T02:13:05;9.60;99.90
31597;DHT22;18201;50.978;7.034;2023-04-01T02:13:40;9.60;99.90
31597;DHT22;18201;50.978;7.034;2023-04-01T02:14:15;9.60;99.90
31597;DHT22;18201;50.978;7.034;2023-04-01T02:14:52;9.60;99.90
31597;DHT22;18201;50.978;7.034;2023-04-01T02:15:24;9.60;99.90
31597;DHT22;18201;50.978;7.034;2023-04-01T02:16:05;9.50;99.90
31597;DHT22;18201;50.978;7.034;2023-04-01T02:16:42;9.50;99.90
31597;DHT22;18201;50.978;7.034;2023-04-01T02:17:16;9.50;99.90
31597;DHT22;18201;50.978;7.034;2023-04-01T02:17:49;9.50;99.90
31597;DHT22;18201;50.978;7.034;2023-04-01T02:18:24;9.50;99.90
31597;DHT22;18201;50.978;7.034;2023-04-01T02:18:57;9.50;99.90
31597;DHT22;18201;50.978;7.034;2023-04-01T02:19:33;9.50;99.90
31597;DHT22;18201;50.978;7.034;2023-04-01T02:20:09;9.50;99.90
31597;DHT22;18201;50.978;7.034;2023-04-01T02:20:42;9.50;99.90
31597;DHT22;18201;50.978;7.034;2023-04-01T02:21:16;9.40;99.90
31597;DHT22;18201;50.978;7.034;2023-04-01T02:21:50;9.40;99.90
31597;DHT22;18201;50.978;7.034;2023-04-01T02:22:26;9.40;99.90
31597;DHT22;18201;50.978;7.034;2023-04-01T02:22:59;9.40;99.90
31597;DHT22;18201;50.978;7.034;2023-04-01T02:23:32;9.40;99.90
31597;DHT22;18201;50.978;7.034;2023-04-01T02:24:06;9.40;99.90
31597;DHT22;18201;50.978;7.034;2023-04-01T02:31:51;9.30;99.90
31597;DHT22;18201;50.978;7.034;2023-04-01T02:32:22;9.20;99.90
31597;DHT22;18201;50.978;7.034;2023-04-01T02:32:54;9.20;99.90
31597;DHT22;18201;50.978;7.034;2023-04-01T02:33:27;9.20;99.90
31597;DHT22;18201;50.978;7.034;2023-04-01T02:33:59;9.20;99.90
31597;DHT22;18201;50.978;7.034;2023-04-01T02:34:30;9.20;99.90
31597;DHT22;18201;50.978;7.034;2023-04-01T02:35:01;9.20;99.90
31597;DHT22;18201;50.978;7.034;2023-04-01T02:35:36;9.20;99.90
31597;DHT22;18201;50.978;7.034;2023-04-01T02:36:11;9.20;99.90
31597;DHT22;18201;50.978;7.034;2023-04-01T02:36:45;9.20;99.90
31597;DHT22;18201;50.978;7.034;2023-04-01T02:37:17;9.10;99.90
31597;DHT22;18201;50.978;7.034;2023-04-01T02:37:50;9.10;99.90
31597;DHT22;18201;50.978;7.034;2023-04-01T02:38:23;9.10;99.90
31597;DHT22;18201;50.978;7.034;2023-04-01T02:38:56;9.10;99.90
31597;DHT22;18201;50.978;7.034;2023-04-01T02:39:31;9.10;99.90
31597;DHT22;18201;50.978;7.034;2023-04-01T02:40:05;9.10;99.90
31597;DHT22;18201;50.978;7.034;2023-04-01T02:40:42;9.10;99.90
31597;DHT22;18201;50.978;7.034;2023-04-01T02:41:13;9.10;99.90
31597;DHT22;18201;50.978;7.034;2023-04-01T02:41:46;9.10;99.90
31597;DHT22;18201;50.978;7.034;2023-04-01T02:42:17;9.10;99.90
31597;DHT22;18201;50.978;7.034;2023-04-01T02:42:47;9.10;99.90
31597;DHT22;18201;50.978;7.034;2023-04-01T02:43:18;9.10;99.90
31597;DHT22;18201;50.978;7.034;2023-04-01T04:04:20;8.80;99.90
31597;DHT22;18201;50.978;7.034;2023-04-01T04:04:52;8.80;99.90
31597;DHT22;18201;50.978;7.034;2023-04-01T04:05:23;8.80;99.90
31597;DHT22;18201;50.978;7.034;2023-04-01T04:05:54;8.80;99.90
31597;DHT22;18201;50.978;7.034;2023-04-01T04:06:27;8.80;99.90
31597;DHT22;18201;50.978;7.034;2023-04-01T04:06:59;8.80;99.90
31597;DHT22;18201;50.978;7.034;2023-04-01T04:07:30;8.80;99.90
31597;DHT22;18201;50.978;7.034;2023-04-01T04:08:01;8.80;99.90
31597;DHT22;18201;50.978;7.034;2023-04-01T04:08:33;8.80;99.90
31597;DHT22;18201;50.978;7.034;2023-04-01T04:09:04;8.80;99.90
31597;DHT22;18201;50.978;7.034;2023-04-01T04:09:35;8.80;99.90
31597;DHT22;18201;50.978;7.034;2023-04-01T04:10:08;8.80;99.90
31597;DHT22;18201;50.978;7.034;2023-04-01T04:10:38;8.80;99.90
31597;DHT22;18201;50.978;7.034;2023-04-01T04:11:10;8.80;99.90
31597;DHT22;18201;50.978;7.034;2023-04-01T04:11:42;8.80;99.90
31597;DHT22;18201;50.978;7.034;2023-04-01T04:12:13;8.80;99.90
31597;DHT22;18201;50.978;7.034;2023-04-01T04:12:44;8.80;99.90
31597;DHT22;18201;50.978;7.034;2023-04-01T04:13:15;8.80;99.90
31597;DHT22;18201;50.978;7.034;2023-04-01T04:13:47;8.80;99.90
31597;DHT22;18201;50.978;7.034;2023-04-01T04:14:18;8.80;99.90
31597;DHT22;18201;50.978;7.034;2023-04-01T04:14:49;8.80;99.90
31597;DHT22;18201;50.978;7.034;2023-04-01T04:15:21;8.80;99.90
31597;DHT22;18201;50.978;7.034;2023-04-01T04:15:52;8.80;99.90
31597;DHT22;18201;50.978;7.034;2023-04-01T04:16:22;8.80;99.90
31597;DHT22;18201;50.978;7.034;2023-04-01T04:16:54;8.90;99.90
31597;DHT22;18201;50.978;7.034;2023-04-01T04:17:25;8.80;99.90
31597;DHT22;18201;50.978;7.034;2023-04-01T04:17:56;8.80;99.90
31597;DHT22;18201;50.978;7.034;2023-04-01T04:18:27;8.80;99.90
31597;DHT22;18201;50.978;7.034;2023-04-01T04:18:59;8.80;99.90
31597;DHT22;18201;50.978;7.034;2023-04-01T04:19:33;8.80;99.90
31597;DHT22;18201;50.978;7.034;2023-04-01T04:20:06;8.80;99.90
31597;DHT22;18201;50.978;7.034;2023-04-01T04:20:40;8.80;99.90
31597;DHT22;18201;50.978;7.034;2023-04-01T04:21:14;8.90;99.90
31597;DHT22;18201;50.978;7.034;2023-04-01T04:21:46;8.90;99.90
31597;DHT22;18201;50.978;7.034;2023-04-01T04:22:17;8.80;99.90
31597;DHT22;18201;50.978;7.034;2023-04-01T04:22:48;8.90;99.90
31597;DHT22;18201;50.978;7.034;2023-04-01T04:23:20;8.80;99.90
31597;DHT22;18201;50.978;7.034;2023-04-01T04:23:51;8.90;99.90
31597;DHT22;18201;50.978;7.034;2023-04-01T04:24:22;8.90;99.90
31597;DHT22;18201;50.978;7.034;2023-04-01T04:24:53;8.90;99.90
31597;DHT22;18201;50.978;7.034;2023-04-01T04:25:24;8.90;99.90
31597;DHT22;18201;50.978;7.034;2023-04-01T04:25:57;8.90;99.90
31597;DHT22;18201;50.978;7.034;2023-04-01T04:26:29;8.90;99.90
31597;DHT22;18201;50.978;7.034;2023-04-01T04:27:00;9.00;99.90
31597;DHT22;18201;50.978;7.034;2023-04-01T04:27:31;9.00;99.90
31597;DHT22;18201;50.978;7.034;2023-04-01T04:28:03;9.00;99.90
31597;DHT22;18201;50.978;7.034;2023-04-01T04:28:34;9.00;99.90
31597;DHT22;18201;50.978;7.034;2023-04-01T04:29:05;9.00;99.90
31597;DHT22;18201;50.978;7.034;2023-04-01T04:29:37;9.00;99.90
31597;DHT22;18201;50.978;7.034;2023-04-01T04:30:09;9.10;99.90
31597;DHT22;18201;50.978;7.034;2023-04-01T04:30:40;9.10;99.90
31597;DHT22;18201;50.978;7.034;2023-04-01T04:31:11;9.10;99.90
31597;DHT22;18201;50.978;7.034;2023-04-01T04:31:43;9.10;99.90
31597;DHT22;18201;50.978;7.034;2023-04-01T04:32:14;9.20;99.90
31597;DHT22;18201;50.978;7.034;2023-04-01T04:32:45;9.20;99.90
31597;DHT22;18201;50.978;7.034;2023-04-01T04:33:17;9.30;99.90
31597;DHT22;18201;50.978;7.034;2023-04-01T04:33:48;9.20;99.90
31597;DHT22;18201;50.978;7.034;2023-04-01T04:34:19;9.30;99.90
31597;DHT22;18201;50.978;7.034;2023-04-01T04:34:54;9.30;99.90
31597;DHT22;18201;50.978;7.034;2023-04-01T04:35:24;9.30;99.90
31597;DHT22;18201;50.978;7.034;2023-04-01T04:35:57;9.30;99.90
31597;DHT22;18201;50.978;7.034;2023-04-01T04:36:29;9.30;99.90
31597;DHT22;18201;50.978;7.034;2023-04-01T04:37:00;9.30;99.90
31597;DHT22;18201;50.978;7.034;2023-04-01T04:37:31;9.30;99.90
31597;DHT22;18201;50.978;7.034;2023-04-01T04:38:03;9.30;99.90
31597;DHT22;18201;50.978;7.034;2023-04-01T04:38:34;9.30;99.90
31597;DHT22;18201;50.978;7.034;2023-04-01T04:39:04;9.30;99.90
31597;DHT22;18201;50.978;7.034;2023-04-01T04:39:36;9.30;99.90
31597;DHT22;18201;50.978;7.034;2023-04-01T04:40:08;9.30;99.90
31597;DHT22;18201;50.978;7.034;2023-04-01T04:40:40;9.30;99.90
31597;DHT22;18201;50.978;7.034;2023-04-01T04:41:11;9.30;99.90
31597;DHT22;18201;50.978;7.034;2023-04-01T04:41:44;9.30;99.90
31597;DHT22;18201;50.978;7.034;2023-04-01T04:42:15;9.30;99.90
31597;DHT22;18201;50.978;7.034;2023-04-01T04:42:46;9.30;99.90
31597;DHT22;18201;50.978;7.034;2023-04-01T04:43:18;9.30;99.90
31597;DHT22;18201;50.978;7.034;2023-04-01T04:43:50;9.30;99.90
31597;DHT22;18201;50.978;7.034;2023-04-01T04:44:22;9.20;99.90
31597;DHT22;18201;50.978;7.034;2023-04-01T04:44:54;9.20;99.90
31597;DHT22;18201;50.978;7.034;2023-04-01T04:45:25;9.30;99.90
31597;DHT22;18201;50.978;7.034;2023-04-01T04:45:56;9.30;99.90
31597;DHT22;18201;50.978;7.034;2023-04-01T04:46:28;9.30;99.90
31597;DHT22;18201;50.978;7.034;2023-04-01T04:47:00;9.30;99.90
31597;DHT22;18201;50.978;7.034;2023-04-01T04:47:31;9.20;99.90
31597;DHT22;18201;50.978;7.034;2023-04-01T04:48:03;9.30;99.90
31597;DHT22;18201;50.978;7.034;2023-04-01T04:48:35;9.30;99.90
31597;DHT22;18201;50.978;7.034;2023-04-01T04:49:06;9.30;99.90
31597;DHT22;18201;50.978;7.034;2023-04-01T04:49:37;9.30;99.90
31597;DHT22;18201;50.978;7.034;2023-04-01T04:50:13;9.30;99.90
31597;DHT22;18201;50.978;7.034;2023-04-01T04:50:44;9.30;99.90
31597;DHT22;18201;50.978;7.034;2023-04-01T04:51:19;9.30;99.90
31597;DHT22;18201;50.978;7.034;2023-04-01T04:51:51;9.30;99.90
31597;DHT22;18201;50.978;7.034;2023-04-01T04:52:24;9.30;99.90
31597;DHT22;18201;50.978;7.034;2023-04-01T04:52:55;9.30;99.90
31597;DHT22;18201;50.978;7.034;2023-04-01T04:53:31;9.30;99.90
31597;DHT22;18201;50.978;7.034;2023-04-01T04:54:03;9.30;99.90
31597;DHT22;18201;50.978;7.034;2023-04-01T04:54:34;9.30;99.90
31597;DHT22;18201;50.978;7.034;2023-04-01T04:55:07;9.20;99.90
31597;DHT22;18201;50.978;7.034;2023-04-01T04:55:42;9.30;99.90
31597;DHT22;18201;50.978;7.034;2023-04-01T04:56:16;9.30;99.90
31597;DHT22;18201;50.978;7.034;2023-04-01T04:56:51;9.30;99.90
31597;DHT22;18201;50.978;7.034;2023-04-01T04:57:22;9.30;99.90
31597;DHT22;18201;50.978;7.034;2023-04-01T04:57:56;9.30;99.90
31597;DHT22;18201;50.978;7.034;2023-04-01T04:58:27;9.30;99.90
31597;DHT22;18201;50.978;7.034;2023-04-01T04:58:58;9.30;99.90
31597;DHT22;18201;50.978;7.034;2023-04-01T04:59:30;9.20;99.90
31597;DHT22;18201;50.978;7.034;2023-04-01T05:00:03;9.20;99.90
31597;DHT22;18201;50.978;7.034;2023-04-01T05:00:34;9.20;99.90
31597;DHT22;18201;50.978;7.034;2023-04-01T05:01:09;9.20;99.90
31597;DHT22;18201;50.978;7.034;2023-04-01T05:01:42;9.20;99.90
31597;DHT22;18201;50.978;7.034;2023-04-01T05:02:13;9.20;99.90
31597;DHT22;18201;50.978;7.034;2023-04-01T05:02:43;9.20;99.90
31597;DHT22;18201;50.978;7.034;2023-04-01T05:03:15;9.20;99.90
31597;DHT22;18201;50.978;7.034;2023-04-01T05:03:46;9.20;99.90
31597;DHT22;18201;50.978;7.034;2023-04-01T05:04:18;9.20;99.90
31597;DHT22;18201;50.978;7.034;2023-04-01T05:04:49;9.20;99.90